KTHV/THV METAR and TAF weather

Enter ICAO airport designator
Station Type Date Time Source
KTHV METAR 2021/05/12 04:53 UTC NOAA

KTHV 120453Z AUTO 30005KT 10SM CLR 08/M04 A3021 RMK AO2 SLP234 T00781044 401720044


Station Type Date Time Source
KTHV Decoded METAR 2021/05/12 04:53 UTC NOAA

YORK AIRPORT, PA, United States (KTHV) 39-55N 076-53W 144M
May 12, 2021 - 12:53 AM EDT / 2021.05.12 0453 UTC
Wind: from the WNW (300 degrees) at 6 MPH (5 KT):0
Visibility: 10 mile(s):0
Sky conditions: clear
Temperature: 46.0 F (7.8 C)
Dew Point: 24.1 F (-4.4 C)
Relative Humidity: 41%
Pressure (altimeter): 30.21 in. Hg (1023 hPa)
ob: KTHV 120453Z AUTO 30005KT 10SM CLR 08/M04 A3021 RMK AO2 SLP234 T00781044 401720044
cycle: 5

Station Type Date Time Source
KTHV TAF UTC NOAA

Error!

Example: see airport list